Time;durP1;ratioP1;P1;durP2;ratioP2;P2;SDS_P1;SDS_P2;PMS_P1;PMS_P2;Temp;Humidity;BMP_temperature;BMP_pressure;BME280_temperature;BME280_humidity;BME280_pressure;Samples;Min_cycle;Max_cycle;Signal;HPM_P1;HPM_P2
2023/06/12 00:02:13;;;;;;;;;11.00;10.00;;;;;25.97;51.11;100952.84;4977019;28;46232;-53
2023/06/12 00:04:39;;;;;;;;;9.25;8.00;;;;;25.96;50.87;100949.34;4979926;28;45364;-54
2023/06/12 00:07:05;;;;;;;;;12.00;8.00;;;;;25.96;51.00;100943.22;4978417;28;44809;-50
2023/06/12 00:09:30;;;;;;;;;12.50;10.50;;;;;25.96;50.76;100952.00;4983546;28;44787;-51
2023/06/12 00:11:56;;;;;;;;;10.00;9.00;;;;;25.95;50.87;100939.69;4983075;28;45073;-47
2023/06/12 00:14:21;;;;;;;;;10.75;10.00;;;;;25.95;50.54;100941.53;4973277;28;45367;-55
2023/06/12 00:16:48;;;;;;;;;9.00;8.25;;;;;25.95;51.00;100942.34;4960644;28;45474;-54
2023/06/12 00:19:13;;;;;;;;;9.75;8.75;;;;;25.95;51.11;100947.66;4959586;28;50169;-55
2023/06/12 00:21:39;;;;;;;;;8.25;8.25;;;;;25.95;50.68;100946.84;4962375;28;46245;-55
2023/06/12 00:24:08;;;;;;;;;14.25;9.25;;;;;25.93;51.02;100945.13;4960119;28;45842;-55
2023/06/12 00:26:37;;;;;;;;;9.75;9.00;;;;;25.92;50.67;100943.44;4958477;28;45317;-55
2023/06/12 00:29:03;;;;;;;;;10.75;9.50;;;;;25.93;50.57;100939.81;4960364;28;45618;-55
2023/06/12 00:31:28;;;;;;;;;8.50;6.00;;;;;25.93;51.15;100942.47;4961538;28;45632;-55
2023/06/12 00:33:53;;;;;;;;;10.00;9.50;;;;;25.93;50.81;100933.66;4975043;28;45373;-54
2023/06/12 00:36:19;;;;;;;;;10.00;10.00;;;;;25.92;50.83;100924.84;4978895;28;45605;-55
2023/06/12 00:38:44;;;;;;;;;11.25;10.00;;;;;25.92;50.80;100932.81;4976411;28;44927;-54
2023/06/12 00:41:10;;;;;;;;;11.00;9.25;;;;;25.91;50.72;100928.47;4974794;28;45459;-55
2023/06/12 00:43:35;;;;;;;;;13.25;10.00;;;;;25.91;50.72;100931.13;4957941;28;45272;-53
2023/06/12 00:46:01;;;;;;;;;10.75;9.75;;;;;25.90;50.70;100934.75;4964368;28;45362;-58
2023/06/12 00:48:27;;;;;;;;;8.00;7.25;;;;;25.92;50.70;100937.25;4960462;28;45826;-54
2023/06/12 00:50:52;;;;;;;;;10.25;10.25;;;;;25.90;50.40;100939.22;4961194;28;45335;-54
2023/06/12 00:53:18;;;;;;;;;11.75;11.00;;;;;25.90;50.90;100940.06;4959843;28;45299;-55
2023/06/12 00:55:43;;;;;;;;;12.75;10.00;;;;;25.89;50.70;100938.34;4958920;28;45282;-55
2023/06/12 00:58:09;;;;;;;;;8.50;8.25;;;;;25.88;50.67;100936.66;4958931;28;45318;-55
2023/06/12 01:00:38;;;;;;;;;10.50;10.50;;;;;25.87;50.58;100934.97;4959419;28;46428;-55
2023/06/12 01:03:07;;;;;;;;;9.75;8.25;;;;;25.87;50.36;100936.78;4966247;28;45469;-54
2023/06/12 01:05:38;;;;;;;;;9.00;9.00;;;;;25.85;50.63;100931.56;4959075;28;45369;-55
2023/06/12 01:08:28;;;;;;;;;12.75;10.25;;;;;25.85;50.66;100926.28;4958045;28;45557;-55
2023/06/12 01:11:07;;;;;;;;;13.75;9.25;;;;;25.83;50.54;100917.59;4959072;28;46401;-54
2023/06/12 01:13:33;;;;;;;;;12.00;10.75;;;;;25.85;50.70;100925.44;4959814;28;45804;-54
2023/06/12 01:15:59;;;;;;;;;11.00;10.00;;;;;25.85;50.53;100925.44;4958936;28;45431;-46
2023/06/12 01:18:25;;;;;;;;;9.00;9.00;;;;;25.83;50.19;100920.25;4966483;28;45393;-49
2023/06/12 01:20:53;;;;;;;;;11.00;9.00;;;;;25.82;50.08;100918.56;4966409;28;45388;-50
2023/06/12 01:23:33;;;;;;;;;10.00;10.00;;;;;25.83;50.44;100922.03;4960278;28;45774;-55
2023/06/12 01:26:05;;;;;;;;;7.75;7.75;;;;;25.82;49.99;100918.56;4960804;28;45266;-46
2023/06/12 01:29:01;;;;;;;;;10.25;9.25;;;;;25.82;50.12;100920.34;4959193;28;45441;-50
2023/06/12 01:31:34;;;;;;;;;12.25;9.50;;;;;25.81;49.95;100924.84;4965413;28;46319;-56
2023/06/12 01:34:12;;;;;;;;;9.00;7.00;;;;;25.81;50.34;100913.34;4959273;28;45510;-48
2023/06/12 01:36:40;;;;;;;;;9.50;6.25;;;;;25.80;50.05;100912.53;4959339;28;45473;-55
2023/06/12 01:39:07;;;;;;;;;11.00;9.00;;;;;25.78;49.84;100907.34;4958338;28;45417;-53
2023/06/12 01:41:34;;;;;;;;;7.00;6.75;;;;;25.77;50.21;100910.09;4957976;28;45300;-48
2023/06/12 01:44:07;;;;;;;;;11.75;8.75;;;;;25.77;49.90;100905.66;4958446;28;45232;-54
2023/06/12 01:46:32;;;;;;;;;7.00;7.00;;;;;25.77;49.72;100908.31;4979996;28;44701;-43
2023/06/12 01:48:57;;;;;;;;;11.00;7.75;;;;;25.77;49.66;100912.75;4981867;28;45607;-54
2023/06/12 01:51:23;;;;;;;;;7.75;7.00;;;;;25.77;49.87;100913.59;4958069;28;45645;-55
2023/06/12 01:53:48;;;;;;;;;10.75;8.00;;;;;25.77;49.76;100918.06;4958524;28;57173;-55
2023/06/12 01:56:14;;;;;;;;;9.00;8.00;;;;;25.76;49.38;100919.00;4962189;28;47445;-54
2023/06/12 01:58:40;;;;;;;;;8.25;6.25;;;;;25.75;49.59;100914.66;4963731;28;45642;-53
2023/06/12 02:01:05;;;;;;;;;9.25;7.00;;;;;25.74;49.58;100911.19;4966368;28;46453;-54
2023/06/12 02:03:32;;;;;;;;;8.00;6.00;;;;;25.73;49.78;100920.09;4960448;28;45414;-54
2023/06/12 02:05:57;;;;;;;;;8.00;8.00;;;;;25.73;49.79;100916.63;4969712;28;45419;-53
2023/06/12 02:08:22;;;;;;;;;9.00;8.00;;;;;25.72;49.38;100925.53;4978410;28;45288;-53
2023/06/12 02:10:48;;;;;;;;;11.00;8.75;;;;;25.71;49.42;100923.84;4960650;28;60654;-50
2023/06/12 02:13:13;;;;;;;;;11.75;7.50;;;;;25.70;49.29;100922.16;4957924;28;45438;-49
2023/06/12 02:15:38;;;;;;;;;8.75;7.00;;;;;25.69;49.10;100923.94;4957842;28;45352;-53
2023/06/12 02:18:04;;;;;;;;;11.75;7.00;;;;;25.69;49.71;100931.91;4958729;28;45433;-55
2023/06/12 02:20:30;;;;;;;;;7.00;7.00;;;;;25.68;49.47;100926.72;4957951;28;47166;-53
2023/06/12 02:22:55;;;;;;;;;9.25;9.25;;;;;25.69;49.31;100928.41;4957370;28;45354;-53
2023/06/12 02:25:20;;;;;;;;;8.00;7.67;;;;;25.68;49.38;100937.34;4962311;28;57424;-50
2023/06/12 02:27:45;;;;;;;;;8.50;8.50;;;;;25.67;49.00;100938.31;4964532;28;45349;-51
2023/06/12 02:30:11;;;;;;;;;8.25;7.50;;;;;25.68;49.54;100946.16;4958136;28;58090;-55
2023/06/12 02:32:38;;;;;;;;;7.00;7.00;;;;;25.67;49.09;100943.63;4957407;28;45351;-55
2023/06/12 02:35:08;;;;;;;;;8.75;8.75;;;;;25.63;49.28;100940.34;4957565;28;45415;-50
2023/06/12 02:37:34;;;;;;;;;8.75;8.75;;;;;25.60;49.02;100949.41;4961638;28;45260;-49
2023/06/12 02:39:59;;;;;;;;;11.00;9.00;;;;;25.58;49.13;100951.31;4965525;28;46259;-55
2023/06/12 02:42:25;;;;;;;;;9.75;8.25;;;;;25.55;49.08;100951.53;4961736;28;45410;-54
2023/06/12 02:44:50;;;;;;;;;9.50;8.00;;;;;25.54;49.57;100949.84;4956818;28;54231;-52
2023/06/12 02:47:16;;;;;;;;;11.00;8.25;;;;;25.50;49.35;100942.22;4957054;28;45342;-54
2023/06/12 02:49:44;;;;;;;;;8.25;8.25;;;;;25.49;49.51;100928.13;4956929;28;46453;-54
2023/06/12 02:52:10;;;;;;;;;8.00;8.00;;;;;25.46;49.27;100926.56;4960401;28;45165;-54
2023/06/12 02:54:36;;;;;;;;;7.25;7.25;;;;;25.46;49.17;100925.69;4968816;28;45442;-51
2023/06/12 02:57:01;;;;;;;;;9.75;8.25;;;;;25.45;49.06;100922.22;4980748;28;45377;-53
2023/06/12 02:59:26;;;;;;;;;9.50;7.75;;;;;25.44;49.47;100922.31;4963265;28;51965;-49
2023/06/12 03:01:52;;;;;;;;;8.25;7.75;;;;;25.42;49.71;100916.25;4957297;28;45397;-52
2023/06/12 03:04:20;;;;;;;;;8.75;8.50;;;;;25.42;49.85;100929.53;4957055;28;45335;-54
2023/06/12 03:06:52;;;;;;;;;9.00;8.50;;;;;25.41;49.43;100918.09;4955943;28;45382;-51
2023/06/12 03:09:18;;;;;;;;;8.00;8.00;;;;;25.39;49.68;100917.31;4956834;28;47475;-54
2023/06/12 03:11:44;;;;;;;;;9.50;7.75;;;;;25.38;49.30;100917.44;4957015;28;45774;-53
2023/06/12 03:14:09;;;;;;;;;10.50;8.50;;;;;25.38;49.64;100922.75;4956891;28;45469;-54
2023/06/12 03:16:36;;;;;;;;;10.25;8.25;;;;;25.36;49.81;100920.19;4960279;28;45484;-44
2023/06/12 03:19:02;;;;;;;;;8.25;7.25;;;;;25.35;49.32;100926.50;4964592;28;46189;-54
2023/06/12 03:21:27;;;;;;;;;9.50;7.25;;;;;25.31;49.43;100923.19;4969071;28;45337;-55
2023/06/12 03:23:52;;;;;;;;;9.00;8.00;;;;;25.29;49.15;100930.44;4960976;28;45390;-54
2023/06/12 03:26:18;;;;;;;;;8.50;8.50;;;;;25.27;49.74;100937.66;4957108;28;45244;-49
2023/06/12 03:28:45;;;;;;;;;9.25;7.75;;;;;25.26;49.76;100940.41;4956496;28;48160;-49
2023/06/12 03:31:10;;;;;;;;;11.00;9.00;;;;;25.24;49.62;100931.75;4956495;28;45363;-51
2023/06/12 03:33:35;;;;;;;;;9.50;7.50;;;;;25.21;49.16;100938.09;4957213;28;45906;-52
2023/06/12 03:36:01;;;;;;;;;11.50;9.00;;;;;25.17;49.81;100931.34;4957088;28;45378;-54
2023/06/12 03:38:26;;;;;;;;;9.50;8.75;;;;;25.14;49.58;100931.56;4956499;28;49124;-45
2023/06/12 03:40:51;;;;;;;;;10.25;9.75;;;;;25.13;49.25;100929.88;4955875;28;67071;-49
2023/06/12 03:43:17;;;;;;;;;10.25;8.25;;;;;25.11;49.61;100932.66;4956839;28;45365;-51
2023/06/12 03:45:42;;;;;;;;;9.50;8.50;;;;;25.08;49.28;100932.03;4956923;28;45585;-51
2023/06/12 03:48:07;;;;;;;;;9.25;7.75;;;;;25.06;49.48;100926.00;4959934;28;46227;-51
2023/06/12 03:50:33;;;;;;;;;16.00;8.25;;;;;25.04;49.13;100930.56;4964582;28;45361;-48
2023/06/12 03:52:58;;;;;;;;;6.25;6.25;;;;;25.00;49.55;100922.81;4960688;28;45347;-47
2023/06/12 03:55:24;;;;;;;;;9.00;8.00;;;;;25.00;49.57;100932.59;4960650;28;45401;-48
2023/06/12 03:57:50;;;;;;;;;9.00;8.25;;;;;24.96;49.57;100929.31;4962968;28;45499;-47
2023/06/12 04:00:16;;;;;;;;;8.50;8.00;;;;;24.95;49.66;100932.94;4967209;28;45259;-53
2023/06/12 04:02:42;;;;;;;;;9.50;7.25;;;;;24.95;49.54;100937.38;4966933;28;45271;-51
2023/06/12 04:05:08;;;;;;;;;10.75;7.75;;;;;24.91;49.72;100936.75;4969309;28;45219;-51
2023/06/12 04:07:36;;;;;;;;;11.50;9.25;;;;;24.92;50.14;100937.59;4956487;28;47221;-50
2023/06/12 04:10:03;;;;;;;;;8.25;8.25;;;;;24.90;50.08;100935.06;4973039;28;45377;-54
2023/06/12 04:12:28;;;;;;;;;11.25;9.50;;;;;24.89;50.16;100938.66;4972261;28;45382;-47
2023/06/12 04:14:53;;;;;;;;;8.00;8.00;;;;;24.90;50.38;100932.41;4972192;28;44930;-54
2023/06/12 04:17:19;;;;;;;;;12.75;11.00;;;;;24.91;50.49;100927.97;4974384;28;45838;-54
2023/06/12 04:19:45;;;;;;;;;11.25;8.75;;;;;24.89;50.75;100930.72;4967796;28;45412;-51
2023/06/12 04:22:12;;;;;;;;;9.00;8.25;;;;;24.89;50.81;100916.63;4967497;28;45388;-53
2023/06/12 04:24:41;;;;;;;;;11.50;11.00;;;;;24.90;51.19;100918.31;4966119;28;45226;-52
2023/06/12 04:27:09;;;;;;;;;14.25;11.75;;;;;24.92;50.72;100913.72;4963680;28;46430;-49
2023/06/12 04:29:37;;;;;;;;;9.00;9.00;;;;;24.94;51.40;100920.63;4962198;28;45345;-51
2023/06/12 04:32:06;;;;;;;;;11.25;11.25;;;;;24.96;50.71;100920.50;4964220;28;45334;-53
2023/06/12 04:34:43;;;;;;;;;12.00;10.75;;;;;24.98;50.83;100922.06;4962650;28;45473;-57
2023/06/12 04:37:11;;;;;;;;;12.25;11.00;;;;;25.00;50.98;100920.16;4967584;28;45434;-53
2023/06/12 04:39:38;;;;;;;;;14.25;9.75;;;;;25.01;51.21;100921.84;4964601;28;45258;-55
2023/06/12 04:42:07;;;;;;;;;10.50;8.50;;;;;25.03;50.63;100923.56;4959518;28;45251;-50
2023/06/12 04:44:34;;;;;;;;;10.75;9.00;;;;;25.05;50.48;100926.94;4965874;28;45334;-55
2023/06/12 04:47:14;;;;;;;;;9.50;9.25;;;;;25.06;50.76;100928.66;4963080;28;46336;-48
2023/06/12 04:49:41;;;;;;;;;12.50;9.00;;;;;25.06;50.85;100937.44;4960970;28;45840;-49
2023/06/12 04:52:07;;;;;;;;;8.00;8.00;;;;;25.07;50.59;100931.16;4959170;28;45418;-54
2023/06/12 04:54:36;;;;;;;;;10.25;10.25;;;;;25.08;50.32;100937.34;4959089;28;45344;-55
2023/06/12 04:57:12;;;;;;;;;11.50;10.00;;;;;25.09;50.71;100933.69;4958711;28;46734;-53
2023/06/12 04:59:40;;;;;;;;;10.50;8.50;;;;;25.07;50.23;100935.66;4958205;28;45745;-55
2023/06/12 05:02:07;;;;;;;;;11.00;8.50;;;;;25.06;50.40;100928.66;4957565;28;45412;-55
2023/06/12 05:04:33;;;;;;;;;11.25;8.00;;;;;25.07;50.30;100940.94;4958826;28;45442;-55
2023/06/12 05:06:59;;;;;;;;;11.25;8.50;;;;;25.05;50.65;100938.38;4957892;28;46257;-54
2023/06/12 05:09:25;;;;;;;;;10.00;8.75;;;;;25.05;50.57;100932.25;4958405;28;45888;-54
2023/06/12 05:11:50;;;;;;;;;9.75;9.75;;;;;25.06;50.38;100933.94;4971883;28;44734;-54
2023/06/12 05:14:16;;;;;;;;;9.00;7.50;;;;;25.06;50.62;100939.25;4962921;28;45696;-51
2023/06/12 05:16:41;;;;;;;;;8.00;7.50;;;;;25.06;50.19;100940.09;4981286;28;45327;-42
2023/06/12 05:19:09;;;;;;;;;15.00;8.00;;;;;25.06;50.72;100940.09;4961930;28;45228;-44
2023/06/12 05:21:34;;;;;;;;;9.00;8.00;;;;;25.06;50.31;100936.59;4960149;28;45256;-46
2023/06/12 05:23:59;;;;;;;;;9.25;8.00;;;;;25.06;50.56;100939.25;4958607;28;45233;-42
2023/06/12 05:26:25;;;;;;;;;7.25;7.25;;;;;25.05;50.80;100937.56;4958245;28;46601;-49
2023/06/12 05:28:50;;;;;;;;;8.25;8.25;;;;;25.06;50.51;100939.25;4958010;28;45516;-45
2023/06/12 05:31:16;;;;;;;;;8.25;8.25;;;;;25.06;50.53;100940.09;4958492;28;45379;-42
2023/06/12 05:33:41;;;;;;;;;7.00;6.50;;;;;25.06;49.94;100933.94;4958886;28;45633;-45
2023/06/12 05:36:07;;;;;;;;;12.50;8.50;;;;;25.06;50.11;100934.78;4958148;28;47167;-44
2023/06/12 05:38:33;;;;;;;;;6.50;5.00;;;;;25.07;50.19;100930.34;4959705;28;45337;-45
2023/06/12 05:40:59;;;;;;;;;6.75;6.75;;;;;25.05;49.90;100937.56;4966005;28;48787;-43
2023/06/12 05:43:24;;;;;;;;;8.25;7.00;;;;;25.04;50.13;100936.69;4960373;28;45367;-46
2023/06/12 05:45:49;;;;;;;;;10.75;9.75;;;;;25.02;50.22;100938.63;4958554;28;45659;-41
2023/06/12 05:48:15;;;;;;;;;8.25;6.50;;;;;25.01;50.04;100932.47;4979524;28;48785;-54
2023/06/12 05:50:40;;;;;;;;;8.00;8.00;;;;;25.03;49.75;100934.16;4978132;28;56061;-53
2023/06/12 05:53:06;;;;;;;;;7.50;6.25;;;;;25.01;50.44;100929.81;4980635;28;44875;-55
2023/06/12 05:55:31;;;;;;;;;8.00;7.00;;;;;25.03;50.14;100942.13;4965521;28;46100;-54
2023/06/12 05:57:57;;;;;;;;;7.75;6.00;;;;;25.02;49.83;100941.28;4959857;28;45256;-51
2023/06/12 06:00:23;;;;;;;;;10.00;8.00;;;;;25.00;50.16;100932.59;4957961;28;45226;-54
2023/06/12 06:02:48;;;;;;;;;9.50;8.25;;;;;25.01;49.82;100937.78;4958310;28;45327;-54
2023/06/12 06:05:14;;;;;;;;;6.75;6.00;;;;;24.99;50.36;100941.50;4941013;28;46386;-50
2023/06/12 06:07:39;;;;;;;;;7.50;7.50;;;;;25.03;50.40;100944.78;4964107;28;45379;-53
2023/06/12 06:10:05;;;;;;;;;8.75;8.00;;;;;25.03;50.33;100944.78;4962877;28;45333;-50
2023/06/12 06:12:30;;;;;;;;;6.75;6.75;;;;;25.01;50.21;100951.03;4960029;28;45442;-53
2023/06/12 06:14:56;;;;;;;;;7.00;7.00;;;;;25.04;50.29;100949.13;4957803;28;46221;-53
2023/06/12 06:17:21;;;;;;;;;7.00;7.00;;;;;25.02;50.03;100949.25;4940011;28;48604;-54
2023/06/12 06:19:46;;;;;;;;;8.00;7.25;;;;;25.01;50.11;100943.06;4957601;28;45360;-54
2023/06/12 06:22:14;;;;;;;;;7.00;7.00;;;;;25.02;49.82;100949.25;4957985;28;45440;-55
2023/06/12 06:24:41;;;;;;;;;7.25;7.25;;;;;25.02;50.31;100949.25;4957529;28;45390;-51
2023/06/12 06:27:07;;;;;;;;;11.00;7.75;;;;;25.02;49.94;100951.88;4957628;28;45804;-53
2023/06/12 06:29:32;;;;;;;;;5.50;5.50;;;;;25.01;49.73;100953.69;4957902;28;45311;-55
2023/06/12 06:31:58;;;;;;;;;8.50;6.50;;;;;25.03;49.85;100950.06;4942776;28;48029;-50
2023/06/12 06:34:23;;;;;;;;;8.00;8.00;;;;;25.03;49.53;100952.72;4963276;28;66672;-54
2023/06/12 06:36:48;;;;;;;;;7.00;7.00;;;;;25.01;49.65;100952.84;4963237;28;45343;-55
2023/06/12 06:39:14;;;;;;;;;10.25;7.25;;;;;25.04;49.96;100955.25;4962322;28;45279;-45
2023/06/12 06:41:39;;;;;;;;;6.25;6.25;;;;;25.03;50.09;100944.78;4983493;28;44923;-51
2023/06/12 06:44:05;;;;;;;;;7.50;7.00;;;;;25.04;49.82;100951.78;4976950;28;46164;-50
2023/06/12 06:46:30;;;;;;;;;8.50;7.00;;;;;25.05;49.30;100942.84;4957820;28;45422;-54
2023/06/12 06:48:56;;;;;;;;;7.00;7.00;;;;;25.05;49.38;100948.16;4957305;28;45353;-55
2023/06/12 06:51:21;;;;;;;;;6.00;6.00;;;;;25.04;49.10;100946.47;4957420;28;45545;-56
2023/06/12 06:53:46;;;;;;;;;9.00;7.50;;;;;25.07;49.66;100946.25;4963534;28;55696;-53
2023/06/12 06:56:12;;;;;;;;;9.00;6.75;;;;;25.07;48.98;100946.25;4956993;28;45402;-56
2023/06/12 06:58:37;;;;;;;;;7.00;6.25;;;;;25.07;49.41;100948.91;4957090;28;45470;-55
2023/06/12 07:01:03;;;;;;;;;8.50;7.00;;;;;25.06;49.68;100942.72;4957775;28;45441;-56
2023/06/12 07:03:28;;;;;;;;;8.25;7.50;;;;;25.08;49.43;100945.28;4956917;28;46850;-51
2023/06/12 07:05:53;;;;;;;;;10.25;8.00;;;;;25.08;48.83;100950.59;4963371;28;45382;-48
2023/06/12 07:08:19;;;;;;;;;8.75;6.75;;;;;25.08;48.79;100947.94;4960264;28;45398;-47
2023/06/12 07:10:44;;;;;;;;;9.00;7.50;;;;;25.09;49.28;100941.66;4963160;28;45533;-50
2023/06/12 07:13:10;;;;;;;;;7.00;7.00;;;;;25.09;49.20;100941.66;4963091;28;46298;-51
2023/06/12 07:15:35;;;;;;;;;13.25;8.00;;;;;25.08;49.15;100948.78;4962144;28;45414;-48
2023/06/12 07:18:00;;;;;;;;;4.50;1.00;;;;;25.09;48.95;100949.59;4959384;28;46482;-49
2023/06/12 07:20:26;;;;;;;;;5.50;4.25;;;;;25.06;49.49;100945.38;4959774;28;45597;-52
2023/06/12 07:22:51;;;;;;;;;8.25;8.25;;;;;25.05;49.24;100943.69;4961941;28;47279;-47
2023/06/12 07:25:17;;;;;;;;;10.00;8.75;;;;;25.06;48.85;100953.34;4962224;28;45244;-51
2023/06/12 07:27:43;;;;;;;;;8.50;8.50;;;;;25.06;49.18;100956.00;4961521;28;45310;-46
2023/06/12 07:30:09;;;;;;;;;11.25;8.25;;;;;25.07;48.91;100946.25;4945241;28;45560;-45
2023/06/12 07:32:37;;;;;;;;;8.25;7.50;;;;;25.06;48.82;100953.34;4967619;28;46934;-48
2023/06/12 07:35:04;;;;;;;;;9.75;7.50;;;;;25.02;49.20;100954.53;4983608;28;45216;-52
2023/06/12 07:37:35;;;;;;;;;6.25;6.25;;;;;24.99;49.79;100944.97;4978437;28;44740;-51
2023/06/12 07:40:00;;;;;;;;;6.75;6.75;;;;;24.96;49.22;100953.19;4961415;28;45527;-50
2023/06/12 07:42:26;;;;;;;;;8.25;7.50;;;;;24.98;49.78;100956.53;4960267;28;46856;-56
2023/06/12 07:44:51;;;;;;;;;11.00;8.50;;;;;25.00;49.41;100951.16;4959718;28;53918;-54
2023/06/12 07:47:16;;;;;;;;;14.00;11.67;;;;;25.00;49.09;100951.16;4960526;28;62948;-51
2023/06/12 07:49:41;;;;;;;;;8.75;8.75;;;;;24.99;49.33;100949.44;4967833;28;45361;-52
2023/06/12 07:52:07;;;;;;;;;10.50;8.75;;;;;25.00;49.48;100949.34;4967365;28;53375;-55
2023/06/12 07:54:32;;;;;;;;;8.25;8.25;;;;;25.02;49.72;100943.94;4960124;28;45342;-55
2023/06/12 07:56:57;;;;;;;;;8.75;8.75;;;;;25.04;49.27;100941.16;4959987;28;45317;-55
2023/06/12 07:59:23;;;;;;;;;9.75;8.00;;;;;25.04;49.20;100941.16;4960131;28;45645;-54
2023/06/12 08:01:49;;;;;;;;;9.75;8.00;;;;;25.05;49.59;100937.56;4963563;28;47300;-52
2023/06/12 08:04:14;;;;;;;;;8.50;8.00;;;;;25.05;49.36;100942.84;4965156;28;45413;-54
2023/06/12 08:06:40;;;;;;;;;10.25;9.25;;;;;25.06;49.60;100940.09;4961694;28;45248;-54
2023/06/12 08:09:09;;;;;;;;;7.75;7.00;;;;;25.07;49.22;100940.94;4958788;28;45394;-54
2023/06/12 08:11:34;;;;;;;;;8.00;7.25;;;;;25.05;49.03;100948.16;4959494;28;45515;-54
2023/06/12 08:13:59;;;;;;;;;9.50;9.50;;;;;25.08;49.61;100945.28;4959458;28;45243;-55
2023/06/12 08:16:25;;;;;;;;;11.50;10.00;;;;;25.08;48.86;100943.47;4959786;28;45248;-52
2023/06/12 08:18:51;;;;;;;;;9.25;9.25;;;;;25.10;49.08;100941.56;4960254;28;45605;-54
2023/06/12 08:21:17;;;;;;;;;9.00;8.75;;;;;25.11;49.00;100934.44;4958231;28;47456;-50
2023/06/12 08:23:42;;;;;;;;;10.00;8.75;;;;;25.11;49.35;100931.78;4959658;28;45323;-55
2023/06/12 08:26:08;;;;;;;;;10.00;7.75;;;;;25.10;49.42;100925.66;4959815;28;45409;-52
2023/06/12 08:28:35;;;;;;;;;9.50;8.75;;;;;25.12;48.80;100926.38;4966557;28;45483;-55
2023/06/12 08:31:01;;;;;;;;;10.50;9.00;;;;;25.13;48.87;100929.88;4973528;28;46624;-55
2023/06/12 08:33:28;;;;;;;;;10.00;10.00;;;;;25.13;48.95;100925.44;4963547;28;45233;-50
2023/06/12 11:33:41;;;;;;;;;17.50;12.75;;;;;25.72;49.57;100891.03;6012839;23;44989;-47
2023/06/12 11:36:06;;;;;;;;;21.25;13.75;;;;;25.75;49.63;100901.41;4958670;28;46283;-46
2023/06/12 11:38:32;;;;;;;;;19.25;16.25;;;;;25.75;49.86;100888.13;4960170;28;45415;-49
2023/06/12 11:40:57;;;;;;;;;22.50;18.50;;;;;25.76;50.39;100885.38;4960002;28;45391;-42
2023/06/12 11:43:24;;;;;;;;;23.00;18.25;;;;;25.77;49.73;100880.88;4960224;28;45315;-42
2023/06/12 11:45:51;;;;;;;;;22.00;18.50;;;;;25.78;50.04;100877.28;4942426;28;48481;-48
2023/06/12 11:48:17;;;;;;;;;18.75;14.50;;;;;25.82;50.29;100883.19;4959976;28;45311;-47
2023/06/12 11:50:47;;;;;;;;;21.25;15.75;;;;;25.89;50.29;100882.59;4959989;28;45330;-48
2023/06/12 11:53:13;;;;;;;;;20.50;18.25;;;;;25.96;50.21;100879.47;4960049;28;45298;-51
2023/06/12 11:55:38;;;;;;;;;14.50;14.50;;;;;25.99;49.37;100881.88;4959939;28;46074;-58
2023/06/12 11:58:04;;;;;;;;;17.50;15.50;;;;;26.00;49.48;100884.44;4959738;28;45322;-54
2023/06/12 12:00:32;;;;;;;;;17.00;13.75;;;;;26.00;49.57;100886.22;4959757;28;45312;-57
2023/06/12 12:03:01;;;;;;;;;15.50;14.75;;;;;26.02;49.83;100876.34;4959959;28;45334;-60
2023/06/12 12:05:27;;;;;;;;;20.25;15.50;;;;;26.03;49.60;100875.38;4959634;28;47142;-55
2023/06/12 12:07:57;;;;;;;;;20.00;17.25;;;;;26.03;49.61;100870.88;4959690;28;45447;-42
2023/06/12 12:10:24;;;;;;;;;17.50;14.00;;;;;26.07;49.43;100882.13;4959243;28;45376;-44
2023/06/12 12:12:55;;;;;;;;;17.25;16.00;;;;;26.09;49.50;100885.50;4959690;28;45535;-45
2023/06/12 12:15:21;;;;;;;;;16.25;14.25;;;;;26.10;49.57;100876.59;4959391;28;46214;-44
2023/06/12 12:17:47;;;;;;;;;18.00;14.75;;;;;26.10;49.96;100879.25;4959315;28;45385;-59
2023/06/12 12:20:18;;;;;;;;;18.75;16.00;;;;;26.12;49.45;100879.97;4959765;28;45487;-49
2023/06/12 12:22:47;;;;;;;;;16.50;14.00;;;;;26.11;49.90;100867.66;4959685;28;45298;-44
2023/06/12 12:25:18;;;;;;;;;14.75;13.75;;;;;26.11;50.09;100865.00;4959467;28;46175;-55
2023/06/12 12:27:45;;;;;;;;;15.25;13.25;;;;;26.11;49.84;100862.34;4958482;28;45744;-50
2023/06/12 12:30:14;;;;;;;;;19.50;16.50;;;;;26.12;50.81;100869.34;4959660;28;45307;-55
2023/06/12 12:32:43;;;;;;;;;18.00;12.75;;;;;26.12;50.62;100864.03;4959827;28;45331;-53
2023/06/12 12:35:09;;;;;;;;;18.50;18.25;;;;;26.13;51.10;100863.09;4958979;28;45313;-51
2023/06/12 12:37:34;;;;;;;;;20.50;18.00;;;;;26.14;50.83;100864.78;4959152;28;45359;-43
2023/06/12 12:40:00;;;;;;;;;19.25;18.75;;;;;26.16;51.49;100857.53;4959086;28;45374;-48
2023/06/12 12:42:25;;;;;;;;;22.50;20.25;;;;;26.17;51.56;100853.91;4959370;28;45600;-46
2023/06/12 12:44:51;;;;;;;;;16.75;15.75;;;;;26.18;51.85;100858.22;4959090;28;47284;-50
2023/06/12 12:47:16;;;;;;;;;19.25;16.75;;;;;26.17;51.84;100851.25;4941840;28;45462;-48
2023/06/12 12:49:42;;;;;;;;;13.75;13.75;;;;;26.20;51.50;100850.16;4941986;28;45484;-58
2023/06/12 12:52:07;;;;;;;;;19.25;16.50;;;;;26.18;51.70;100842.28;4941652;28;45350;-48
2023/06/12 12:54:32;;;;;;;;;16.00;15.00;;;;;26.21;51.63;100843.88;4958834;28;46004;-55
2023/06/12 12:56:58;;;;;;;;;18.50;16.00;;;;;26.22;51.57;100835.78;4958591;28;48937;-55
2023/06/12 12:59:24;;;;;;;;;17.50;17.00;;;;;26.22;51.72;100838.44;4958986;28;45480;-57
2023/06/12 13:01:49;;;;;;;;;15.50;14.50;;;;;26.21;51.72;100842.06;4958912;28;45376;-57
2023/06/12 13:04:14;;;;;;;;;18.50;15.25;;;;;26.24;51.55;100843.63;4958965;28;46221;-54
2023/06/12 13:06:40;;;;;;;;;16.25;16.25;;;;;26.20;51.40;100826.25;4958569;28;45512;-53
2023/06/12 13:09:05;;;;;;;;;18.75;17.25;;;;;26.24;51.40;100830.34;4958830;28;45444;-50
2023/06/12 13:11:30;;;;;;;;;18.75;14.25;;;;;26.25;51.11;100829.38;4958939;28;45600;-52
2023/06/12 13:13:56;;;;;;;;;17.25;15.75;;;;;26.24;51.29;100831.19;4958719;28;45305;-42
2023/06/12 13:16:21;;;;;;;;;16.25;15.00;;;;;26.24;51.66;100828.53;4958420;28;51630;-45
2023/06/12 13:18:46;;;;;;;;;17.75;16.00;;;;;26.24;51.32;100819.72;4958376;28;49954;-52
2023/06/12 13:21:12;;;;;;;;;19.75;17.25;;;;;26.26;51.34;100822.25;4958846;28;45674;-59
2023/06/12 13:23:37;;;;;;;;;20.00;16.50;;;;;26.28;51.05;100820.34;4957670;28;46496;-53
2023/06/12 13:26:03;;;;;;;;;19.50;15.00;;;;;26.27;51.02;100818.63;4958424;28;45240;-56
2023/06/12 13:28:28;;;;;;;;;22.50;16.25;;;;;26.28;51.19;100825.66;4958511;28;45287;-50
2023/06/12 13:30:54;;;;;;;;;19.00;17.00;;;;;26.27;51.12;100815.97;4958564;28;45572;-61
2023/06/12 13:33:19;;;;;;;;;17.25;17.25;;;;;26.28;50.99;100809.72;4958125;28;46067;-57
2023/06/12 13:35:46;;;;;;;;;20.75;18.00;;;;;26.27;50.87;100808.00;4958183;28;45238;-55
2023/06/12 13:38:11;;;;;;;;;13.00;13.00;;;;;26.27;51.13;100805.34;4958321;28;45309;-61
2023/06/12 13:40:37;;;;;;;;;17.75;15.50;;;;;26.26;50.98;100816.94;4958367;28;45270;-55
2023/06/12 13:43:02;;;;;;;;;20.75;17.25;;;;;26.24;50.90;100804.63;4958167;28;46080;-58
2023/06/12 13:45:28;;;;;;;;;15.25;14.50;;;;;26.24;50.96;100804.63;4957953;28;50342;-55
2023/06/12 13:47:54;;;;;;;;;16.75;16.25;;;;;26.23;51.07;100797.63;4958209;28;45408;-61
2023/06/12 13:50:19;;;;;;;;;20.25;16.00;;;;;26.23;51.22;100794.97;4958106;28;45551;-59
2023/06/12 13:52:44;;;;;;;;;18.75;15.50;;;;;26.24;50.95;100801.09;4958244;28;45341;-58
2023/06/12 13:55:10;;;;;;;;;16.75;15.25;;;;;26.22;51.13;100795.09;4957894;28;45429;-61
2023/06/12 13:57:39;;;;;;;;;16.25;13.50;;;;;26.25;51.12;100794.84;4957339;28;45329;-58
2023/06/12 14:00:06;;;;;;;;;17.50;17.50;;;;;26.23;50.85;100791.47;4958051;28;45247;-60
2023/06/12 14:02:31;;;;;;;;;16.50;14.50;;;;;26.24;50.96;100794.00;4956515;28;46541;-53
2023/06/12 14:04:57;;;;;;;;;16.50;15.00;;;;;26.23;51.19;100789.66;4957427;28;52394;-59
2023/06/12 14:07:23;;;;;;;;;18.25;16.25;;;;;26.28;51.32;100793.75;4957883;28;45314;-62
2023/06/12 14:09:48;;;;;;;;;16.75;14.75;;;;;26.27;51.20;100789.41;4958028;28;45359;-57
2023/06/12 14:12:13;;;;;;;;;20.25;14.75;;;;;26.26;51.37;100785.06;4957691;28;45345;-60
2023/06/12 14:14:39;;;;;;;;;17.00;15.00;;;;;26.28;51.74;100778.66;4957635;28;45477;-59